メインページ
METAR-TAF:

METAR-TAF

空港 :

ドゥシャンベ, タジキスタン

ドゥシャンベ空港

緯度: 38-33N, 経度: 068-47E, 海抜: 803m

現時点の気象観測

当レポートは30分前の16:00(UTC)に作成
北/北東の風 4kt
気温 30°C
湿度 31%
気圧 1007 hPa
視程10km以上
高度6600ftの雲はほとんどない

METAR: UTDD 221600Z 02002MPS 9999 FEW066 30/11 Q1007 R09/D NOSIG RMK QFE687/0917

時間: 21:30 (16:30 UTC)

予報

当レポートは1時間30分前の15:00(UTC)に作成
予報は22日の 16時(UTC)から 23日の 04時(UTC)まで有効
変向風 4kt
視程: 6000m
高度6600ftの雲はほとんどない, 積乱雲.
高度15000ftの雲は散在している
22日の 16時(UTC)から 23日の 04時(UTC)まで一時的に
の風 10kt

TAF: UTDD 221500Z 2216/2304 VRB02MPS 6000 FEW066CB SCT150 TEMPO 2216/2304 09005MPS

4,000以上の空港の気象観測と天気予報(METAR報とTAF報)

利用可能な観測所は地図上に黄色い丸と赤い丸で示す。

丸の上にカーソルを重ねると観測所名を参照できる。

次にクリックすると気象観測と天気予報を参照できる。

マップの切り替え:黒色「×」印の緑ボタンをクリックして拡大、「-」印の緑ボタンをクリックして縮小、緑色の三角印をクリックして隣りの地図に切り替え


METAR-TAF: